Time;durP1;ratioP1;P1;durP2;ratioP2;P2;SDS_P1;SDS_P2;PMS_P1;PMS_P2;Temp;Humidity;BMP_temperature;BMP_pressure;BME280_temperature;BME280_humidity;BME280_pressure;Samples;Min_cycle;Max_cycle;Signal;HPM_P1;HPM_P2
2023/05/15 00:01:31;;;;;;;;;55.00;43.00;;;;;;;;5040111;28;11492;-79
2023/05/15 00:04:01;;;;;;;;;52.50;42.75;;;;;;;;5046385;28;11554;-78
2023/05/15 00:06:29;;;;;;;;;55.25;44.00;;;;;;;;5042090;28;11505;-78
2023/05/15 00:08:56;;;;;;;;;52.75;44.00;;;;;;;;5042252;28;11628;-81
2023/05/15 00:11:26;;;;;;;;;47.50;40.75;;;;;;;;5036161;28;11503;-79
2023/05/15 00:13:53;;;;;;;;;54.00;43.25;;;;;;;;5056033;28;11546;-79
2023/05/15 00:16:21;;;;;;;;;49.25;41.75;;;;;;;;5038678;28;11556;-78
2023/05/15 00:18:48;;;;;;;;;52.25;43.75;;;;;;;;5036603;28;11659;-77
2023/05/15 00:21:19;;;;;;;;;50.25;40.75;;;;;;;;5043034;28;11630;-81
2023/05/15 00:23:46;;;;;;;;;53.75;44.25;;;;;;;;5031007;28;11534;-78
2023/05/15 00:26:14;;;;;;;;;52.00;42.75;;;;;;;;5041091;28;12269;-80
2023/05/15 00:28:41;;;;;;;;;63.00;50.75;;;;;;;;5047310;28;11536;-78
2023/05/15 00:31:11;;;;;;;;;58.75;44.25;;;;;;;;5045154;28;11491;-77
2023/05/15 00:33:38;;;;;;;;;55.50;46.50;;;;;;;;5041574;28;11652;-80
2023/05/15 00:36:06;;;;;;;;;60.00;47.50;;;;;;;;5039991;28;11537;-82
2023/05/15 00:38:37;;;;;;;;;63.25;49.50;;;;;;;;5047013;28;12297;-79
2023/05/15 00:41:06;;;;;;;;;55.50;44.25;;;;;;;;5040356;28;11541;-80
2023/05/15 00:43:34;;;;;;;;;58.25;47.25;;;;;;;;5042927;28;11537;-81
2023/05/15 00:46:01;;;;;;;;;55.00;45.50;;;;;;;;5041171;28;11521;-81
2023/05/15 00:48:29;;;;;;;;;58.00;47.25;;;;;;;;5039943;28;11539;-77
2023/05/15 00:50:58;;;;;;;;;58.75;48.75;;;;;;;;5038555;28;11614;-77
2023/05/15 00:53:26;;;;;;;;;59.50;46.50;;;;;;;;5045119;28;11492;-78
2023/05/15 00:55:56;;;;;;;;;57.75;46.25;;;;;;;;5039469;28;11634;-77
2023/05/15 00:58:24;;;;;;;;;59.75;48.25;;;;;;;;5043830;28;11603;-79
2023/05/15 01:00:52;;;;;;;;;57.75;47.00;;;;;;;;5041103;28;11601;-78
2023/05/15 01:03:20;;;;;;;;;61.25;47.75;;;;;;;;5043085;28;11564;-77
2023/05/15 01:05:47;;;;;;;;;56.00;45.75;;;;;;;;5051694;28;11668;-78
2023/05/15 01:08:20;;;;;;;;;62.00;49.00;;;;;;;;5045461;28;11557;-78
2023/05/15 01:10:49;;;;;;;;;55.00;46.00;;;;;;;;5045325;28;11542;-76
2023/05/15 01:13:20;;;;;;;;;61.00;47.25;;;;;;;;5049065;28;11515;-81
2023/05/15 01:15:49;;;;;;;;;56.00;45.25;;;;;;;;5042289;28;11563;-78
2023/05/15 01:18:17;;;;;;;;;59.75;48.25;;;;;;;;5044700;28;11617;-77
2023/05/15 01:20:57;;;;;;;;;54.50;45.75;;;;;;;;5048005;28;11516;-79
2023/05/15 01:23:36;;;;;;;;;58.75;46.50;;;;;;;;5051000;28;11501;-78
2023/05/15 01:26:45;;;;;;;;;57.00;45.50;;;;;;;;5040827;28;11543;-78
2023/05/15 01:29:20;;;;;;;;;56.00;45.00;;;;;;;;5037208;28;11518;-78
2023/05/15 01:31:53;;;;;;;;;59.00;46.00;;;;;;;;5049220;28;11489;-78
2023/05/15 01:34:27;;;;;;;;;54.25;44.00;;;;;;;;5050929;28;12460;-77
2023/05/15 01:36:59;;;;;;;;;60.50;47.75;;;;;;;;5049475;28;12453;-78
2023/05/15 01:39:28;;;;;;;;;51.50;42.50;;;;;;;;5050661;28;12380;-77
2023/05/15 01:41:57;;;;;;;;;60.50;46.75;;;;;;;;5050647;28;11524;-77
2023/05/15 01:44:29;;;;;;;;;53.50;44.50;;;;;;;;5050917;28;11607;-77
2023/05/15 01:46:59;;;;;;;;;60.00;49.25;;;;;;;;5043085;28;11589;-79
2023/05/15 01:49:27;;;;;;;;;55.75;45.00;;;;;;;;5046433;28;11592;-78
2023/05/15 01:51:59;;;;;;;;;61.25;50.25;;;;;;;;5049851;28;11543;-77
2023/05/15 01:54:30;;;;;;;;;59.50;47.00;;;;;;;;5037100;28;11619;-80
2023/05/15 01:56:58;;;;;;;;;54.75;45.00;;;;;;;;5035294;28;11584;-77
2023/05/15 01:59:27;;;;;;;;;56.25;43.00;;;;;;;;5047752;28;11669;-78
2023/05/15 02:01:55;;;;;;;;;56.50;47.50;;;;;;;;5044554;28;11643;-78
2023/05/15 02:04:23;;;;;;;;;53.00;44.00;;;;;;;;5043208;28;11613;-77
2023/05/15 02:06:52;;;;;;;;;62.50;46.75;;;;;;;;5039913;28;11609;-77
2023/05/15 02:09:20;;;;;;;;;59.00;46.00;;;;;;;;5043180;28;11599;-81
2023/05/15 02:11:48;;;;;;;;;58.75;47.00;;;;;;;;5045140;28;11606;-80
2023/05/15 02:14:17;;;;;;;;;60.00;47.75;;;;;;;;5043898;28;11680;-78
2023/05/15 02:16:45;;;;;;;;;54.00;43.25;;;;;;;;5049605;28;11573;-80
2023/05/15 02:19:12;;;;;;;;;57.00;47.00;;;;;;;;5038597;28;11632;-80
2023/05/15 02:21:39;;;;;;;;;62.75;49.25;;;;;;;;5030543;28;11708;-82
2023/05/15 02:24:07;;;;;;;;;59.50;46.50;;;;;;;;5040359;28;11774;-80
2023/05/15 02:26:40;;;;;;;;;60.00;49.50;;;;;;;;5044124;28;11708;-81
2023/05/15 02:29:18;;;;;;;;;58.75;46.75;;;;;;;;5049837;28;11569;-78
2023/05/15 02:31:52;;;;;;;;;58.00;45.75;;;;;;;;5048834;28;11513;-79
2023/05/15 02:34:32;;;;;;;;;59.25;47.75;;;;;;;;5050122;28;11850;-79
2023/05/15 02:37:01;;;;;;;;;63.00;48.50;;;;;;;;5049337;28;11674;-76
2023/05/15 02:39:29;;;;;;;;;60.50;46.75;;;;;;;;5047297;28;11580;-81
2023/05/15 02:41:57;;;;;;;;;55.50;45.50;;;;;;;;5049739;28;11719;-83
2023/05/15 02:44:25;;;;;;;;;61.50;44.00;;;;;;;;5045505;28;11567;-80
2023/05/15 02:46:54;;;;;;;;;59.75;48.25;;;;;;;;5043356;28;11629;-77
2023/05/15 02:49:22;;;;;;;;;61.00;50.25;;;;;;;;5047499;28;12019;-80
2023/05/15 02:51:50;;;;;;;;;58.75;47.25;;;;;;;;5048741;28;11604;-78
2023/05/15 02:54:17;;;;;;;;;58.50;46.25;;;;;;;;5045375;28;11600;-79
2023/05/15 02:56:44;;;;;;;;;63.00;50.25;;;;;;;;5036426;28;11612;-78
2023/05/15 02:59:12;;;;;;;;;55.75;44.50;;;;;;;;5043072;28;11607;-83
2023/05/15 03:01:39;;;;;;;;;57.00;47.00;;;;;;;;5036848;28;11531;-77
2023/05/15 03:04:08;;;;;;;;;63.00;47.50;;;;;;;;5040287;28;11605;-77
2023/05/15 03:06:35;;;;;;;;;62.00;49.25;;;;;;;;5049004;28;11586;-81
2023/05/15 03:09:02;;;;;;;;;54.00;43.50;;;;;;;;5036056;28;11591;-77
2023/05/15 03:11:29;;;;;;;;;53.75;43.25;;;;;;;;5047763;28;11690;-79
2023/05/15 03:13:58;;;;;;;;;58.25;47.00;;;;;;;;5036447;28;11577;-76
2023/05/15 03:16:26;;;;;;;;;48.25;40.75;;;;;;;;5036218;28;12372;-77
2023/05/15 03:18:53;;;;;;;;;52.00;39.75;;;;;;;;5047269;28;11570;-77
2023/05/15 03:21:21;;;;;;;;;55.25;44.50;;;;;;;;5048682;28;11551;-77
2023/05/15 03:23:48;;;;;;;;;56.50;45.50;;;;;;;;5045428;28;11575;-78
2023/05/15 03:26:16;;;;;;;;;58.50;48.75;;;;;;;;5043001;28;11589;-76
2023/05/15 03:28:43;;;;;;;;;56.25;47.00;;;;;;;;5040933;28;11569;-77
2023/05/15 03:31:10;;;;;;;;;57.25;48.00;;;;;;;;5041549;28;11542;-77
2023/05/15 03:33:38;;;;;;;;;54.75;46.75;;;;;;;;5039229;28;11595;-77
2023/05/15 03:36:06;;;;;;;;;64.25;49.50;;;;;;;;5041351;28;11577;-77
2023/05/15 03:38:35;;;;;;;;;61.00;47.75;;;;;;;;5046792;28;11570;-78
2023/05/15 03:41:02;;;;;;;;;60.75;45.75;;;;;;;;5049737;28;11702;-77
2023/05/15 03:43:29;;;;;;;;;63.75;48.00;;;;;;;;5048142;28;11595;-77
2023/05/15 03:45:57;;;;;;;;;59.25;48.75;;;;;;;;5036710;28;12331;-77
2023/05/15 03:48:24;;;;;;;;;58.75;48.00;;;;;;;;5041718;28;11593;-78
2023/05/15 03:50:52;;;;;;;;;56.75;44.50;;;;;;;;5045746;28;11635;-80
2023/05/15 03:53:19;;;;;;;;;64.25;50.00;;;;;;;;5042828;28;11581;-78
2023/05/15 03:55:48;;;;;;;;;61.00;48.50;;;;;;;;5052009;28;11647;-87
2023/05/15 03:58:15;;;;;;;;;66.75;52.00;;;;;;;;5050862;28;11584;-84
2023/05/15 04:00:43;;;;;;;;;60.00;48.00;;;;;;;;5032989;28;12149;-84
2023/05/15 04:03:10;;;;;;;;;60.00;49.75;;;;;;;;5048120;28;11575;-83
2023/05/15 04:05:37;;;;;;;;;66.25;51.75;;;;;;;;5043123;28;11571;-83
2023/05/15 04:08:05;;;;;;;;;66.75;51.50;;;;;;;;5036695;28;11665;-84
2023/05/15 04:10:32;;;;;;;;;57.25;45.50;;;;;;;;5046509;28;11604;-81
2023/05/15 04:13:01;;;;;;;;;62.00;49.00;;;;;;;;5037418;28;11594;-81
2023/05/15 04:15:28;;;;;;;;;65.00;50.75;;;;;;;;5046423;28;11609;-80
2023/05/15 04:17:55;;;;;;;;;57.25;43.25;;;;;;;;5047559;28;11724;-80
2023/05/15 04:20:23;;;;;;;;;56.50;44.25;;;;;;;;5046410;28;11618;-81
2023/05/15 04:22:51;;;;;;;;;54.50;41.75;;;;;;;;5047380;28;11703;-81
2023/05/15 04:25:19;;;;;;;;;62.25;49.00;;;;;;;;5047187;28;11717;-81
2023/05/15 04:27:48;;;;;;;;;68.00;53.75;;;;;;;;5047708;28;11597;-81
2023/05/15 04:30:16;;;;;;;;;57.75;45.25;;;;;;;;5045866;28;11574;-80
2023/05/15 04:32:44;;;;;;;;;54.00;45.00;;;;;;;;5049065;28;11564;-80
2023/05/15 04:35:13;;;;;;;;;57.00;48.00;;;;;;;;5046763;28;11558;-81
2023/05/15 04:37:40;;;;;;;;;61.00;46.00;;;;;;;;5051310;28;11601;-80
2023/05/15 04:40:09;;;;;;;;;56.75;45.50;;;;;;;;5049156;28;11589;-80
2023/05/15 04:42:37;;;;;;;;;57.50;47.75;;;;;;;;5044145;28;11667;-80
2023/05/15 04:45:05;;;;;;;;;60.25;50.00;;;;;;;;5050778;28;11575;-81
2023/05/15 04:47:34;;;;;;;;;56.25;45.75;;;;;;;;5051265;28;11566;-80
2023/05/15 04:50:01;;;;;;;;;60.75;48.25;;;;;;;;5049061;28;11636;-81
2023/05/15 04:52:28;;;;;;;;;55.50;46.50;;;;;;;;5051103;28;12736;-80
2023/05/15 04:54:56;;;;;;;;;58.75;48.00;;;;;;;;5039452;28;11567;-81
2023/05/15 04:57:24;;;;;;;;;61.25;48.25;;;;;;;;5051334;28;11583;-81
2023/05/15 04:59:51;;;;;;;;;56.75;44.00;;;;;;;;5039965;28;11609;-81
2023/05/15 05:02:22;;;;;;;;;56.00;44.00;;;;;;;;5050583;28;11513;-80
2023/05/15 05:04:54;;;;;;;;;57.00;46.75;;;;;;;;5048165;28;11673;-81
2023/05/15 05:07:21;;;;;;;;;57.00;45.75;;;;;;;;5045455;28;12470;-81
2023/05/15 05:09:48;;;;;;;;;49.50;40.00;;;;;;;;5040327;28;11586;-83
2023/05/15 05:12:15;;;;;;;;;46.50;39.50;;;;;;;;5045276;28;11584;-84
2023/05/15 05:14:46;;;;;;;;;57.00;45.25;;;;;;;;5051796;28;11642;-86
2023/05/15 05:17:13;;;;;;;;;61.75;43.50;;;;;;;;5040724;28;11077;-87
2023/05/15 05:19:41;;;;;;;;;54.25;41.00;;;;;;;;5051473;28;11582;-83
2023/05/15 05:22:10;;;;;;;;;47.50;39.75;;;;;;;;5051327;28;11612;-81
2023/05/15 05:24:37;;;;;;;;;49.50;41.00;;;;;;;;5041093;28;11710;-82
2023/05/15 05:27:05;;;;;;;;;48.50;39.00;;;;;;;;5037711;28;11540;-81
2023/05/15 05:29:33;;;;;;;;;56.25;45.50;;;;;;;;5038772;28;11598;-84
2023/05/15 05:32:00;;;;;;;;;58.00;46.00;;;;;;;;5047643;28;11527;-81
2023/05/15 05:34:28;;;;;;;;;39.25;35.00;;;;;;;;5051077;28;11728;-83
2023/05/15 05:36:55;;;;;;;;;43.00;38.00;;;;;;;;5038223;28;11744;-79
2023/05/15 05:39:24;;;;;;;;;57.50;44.50;;;;;;;;5041123;28;11567;-79
2023/05/15 05:41:51;;;;;;;;;56.00;45.50;;;;;;;;5050041;28;11716;-79
2023/05/15 05:44:18;;;;;;;;;55.75;45.50;;;;;;;;5050127;28;11694;-83
2023/05/15 05:46:46;;;;;;;;;54.50;41.00;;;;;;;;5050114;28;11604;-82
2023/05/15 05:49:13;;;;;;;;;53.50;40.75;;;;;;;;5049344;28;11731;-80
2023/05/15 05:51:40;;;;;;;;;50.75;42.25;;;;;;;;5048869;28;11569;-85
2023/05/15 05:54:07;;;;;;;;;54.50;45.25;;;;;;;;5050549;28;11773;-85
2023/05/15 05:56:36;;;;;;;;;55.50;45.00;;;;;;;;5050129;28;11772;-85
2023/05/15 05:59:05;;;;;;;;;54.00;42.50;;;;;;;;5050895;28;11611;-85
2023/05/15 06:01:32;;;;;;;;;51.75;43.25;;;;;;;;5050052;28;11655;-81
2023/05/15 06:04:02;;;;;;;;;60.00;45.50;;;;;;;;5050321;28;11679;-81
2023/05/15 06:06:31;;;;;;;;;52.75;42.50;;;;;;;;5050358;28;11745;-85
2023/05/15 06:08:58;;;;;;;;;53.75;43.25;;;;;;;;5049956;28;11705;-82
2023/05/15 06:11:26;;;;;;;;;53.00;43.75;;;;;;;;5038513;28;12488;-85
2023/05/15 06:13:54;;;;;;;;;52.00;40.00;;;;;;;;5050394;28;11641;-83
2023/05/15 06:16:24;;;;;;;;;51.50;41.25;;;;;;;;5050075;28;11580;-82
2023/05/15 06:18:51;;;;;;;;;49.50;40.00;;;;;;;;5049607;28;11701;-84
2023/05/15 06:21:19;;;;;;;;;54.50;44.75;;;;;;;;5044752;28;11595;-82
2023/05/15 06:23:46;;;;;;;;;45.75;38.25;;;;;;;;5049586;28;11627;-83
2023/05/15 06:26:14;;;;;;;;;53.75;40.75;;;;;;;;5049826;28;11846;-83
2023/05/15 06:28:41;;;;;;;;;46.50;38.25;;;;;;;;5049895;28;11667;-83
2023/05/15 06:31:10;;;;;;;;;50.00;41.00;;;;;;;;5049104;28;11548;-81
2023/05/15 06:33:37;;;;;;;;;50.50;39.00;;;;;;;;5045609;28;11701;-82
2023/05/15 06:36:04;;;;;;;;;51.50;43.00;;;;;;;;5049493;28;11564;-83
2023/05/15 06:38:31;;;;;;;;;53.50;42.50;;;;;;;;5049237;28;11557;-80
2023/05/15 06:40:59;;;;;;;;;50.75;42.00;;;;;;;;5049374;28;11584;-81
2023/05/15 06:43:26;;;;;;;;;51.25;40.75;;;;;;;;5049911;28;11693;-85
2023/05/15 06:45:53;;;;;;;;;48.75;40.25;;;;;;;;5049695;28;11701;-88
2023/05/15 06:48:22;;;;;;;;;42.25;35.50;;;;;;;;5049498;28;11520;-83
2023/05/15 06:50:49;;;;;;;;;45.50;37.50;;;;;;;;5048754;28;11514;-83
2023/05/15 06:53:17;;;;;;;;;44.75;35.75;;;;;;;;5048920;28;11502;-84
2023/05/15 06:55:44;;;;;;;;;43.00;37.00;;;;;;;;5049583;28;11504;-84
2023/05/15 06:58:11;;;;;;;;;32.25;31.50;;;;;;;;5048950;28;11514;-84
2023/05/15 07:00:39;;;;;;;;;47.25;39.25;;;;;;;;5048553;28;11556;-88
2023/05/15 07:03:06;;;;;;;;;45.75;36.00;;;;;;;;5049418;28;11512;-76
2023/05/15 07:05:34;;;;;;;;;45.75;37.50;;;;;;;;5049212;28;11523;-78
2023/05/15 07:08:02;;;;;;;;;40.50;36.00;;;;;;;;5049334;28;11606;-78
2023/05/15 07:10:29;;;;;;;;;48.00;38.00;;;;;;;;5050616;28;11286;-80
2023/05/15 07:12:56;;;;;;;;;41.50;35.50;;;;;;;;5043000;28;11431;-80
2023/05/15 07:15:23;;;;;;;;;51.00;37.25;;;;;;;;5048615;28;11179;-79
2023/05/15 07:17:50;;;;;;;;;41.25;34.00;;;;;;;;5045468;28;11150;-80
2023/05/15 07:20:18;;;;;;;;;25.00;23.00;;;;;;;;5040271;28;10981;-80
2023/05/15 07:22:46;;;;;;;;;44.25;37.50;;;;;;;;5035843;28;10880;-77
2023/05/15 07:25:13;;;;;;;;;45.75;38.00;;;;;;;;5047852;28;10935;-78
2023/05/15 07:27:40;;;;;;;;;43.25;35.25;;;;;;;;5047796;28;11008;-79
2023/05/15 07:30:09;;;;;;;;;34.50;32.75;;;;;;;;5047266;28;10976;-79
2023/05/15 07:32:36;;;;;;;;;39.00;34.00;;;;;;;;5047463;28;10906;-76
2023/05/15 07:35:04;;;;;;;;;34.00;32.50;;;;;;;;5048199;28;10905;-79
2023/05/15 07:37:31;;;;;;;;;33.50;31.25;;;;;;;;5040175;28;10888;-79
2023/05/15 07:40:00;;;;;;;;;37.75;32.75;;;;;;;;5047573;28;11079;-76
2023/05/15 07:42:27;;;;;;;;;39.50;33.75;;;;;;;;5047842;28;11114;-76
2023/05/15 07:44:54;;;;;;;;;34.00;33.00;;;;;;;;5047522;28;10759;-77
2023/05/15 07:47:21;;;;;;;;;44.50;35.50;;;;;;;;5047493;28;11707;-80
2023/05/15 07:49:49;;;;;;;;;36.50;33.50;;;;;;;;5045745;28;11129;-77
2023/05/15 07:52:16;;;;;;;;;43.75;35.25;;;;;;;;5047284;28;10996;-79
2023/05/15 07:54:43;;;;;;;;;49.75;38.25;;;;;;;;5047092;28;10857;-80
2023/05/15 07:57:12;;;;;;;;;36.50;34.25;;;;;;;;5047275;28;10831;-77
2023/05/15 07:59:40;;;;;;;;;47.00;37.50;;;;;;;;5047300;28;10809;-78
2023/05/15 08:02:07;;;;;;;;;38.75;35.00;;;;;;;;5047260;28;10706;-76
2023/05/15 08:04:34;;;;;;;;;42.50;37.75;;;;;;;;5047265;28;10784;-80
2023/05/15 08:07:02;;;;;;;;;39.75;32.00;;;;;;;;5047817;28;10755;-80
2023/05/15 08:09:29;;;;;;;;;43.25;37.25;;;;;;;;5046827;28;10672;-80
2023/05/15 08:11:56;;;;;;;;;40.25;35.00;;;;;;;;5046991;28;10824;-78
2023/05/15 08:14:25;;;;;;;;;40.25;36.50;;;;;;;;5046480;28;10661;-80
2023/05/15 08:16:52;;;;;;;;;48.25;39.50;;;;;;;;5047336;28;10641;-80
2023/05/15 08:19:20;;;;;;;;;40.25;35.00;;;;;;;;5046436;28;10634;-80
2023/05/15 08:21:49;;;;;;;;;36.50;31.75;;;;;;;;5047269;28;10564;-80
2023/05/15 08:24:16;;;;;;;;;35.00;31.50;;;;;;;;5046886;28;10404;-80
2023/05/15 08:26:43;;;;;;;;;39.00;34.25;;;;;;;;5047423;28;10193;-80
2023/05/15 08:29:10;;;;;;;;;38.25;31.75;;;;;;;;5047226;28;10466;-78
2023/05/15 08:31:42;;;;;;;;;38.75;34.25;;;;;;;;5046681;28;10314;-77
2023/05/15 08:34:09;;;;;;;;;37.50;34.50;;;;;;;;5035820;28;10437;-77
2023/05/15 08:36:37;;;;;;;;;39.00;34.75;;;;;;;;5047296;28;10363;-77
2023/05/15 08:39:04;;;;;;;;;43.25;34.00;;;;;;;;5047837;28;10516;-80
2023/05/15 08:41:33;;;;;;;;;39.75;33.00;;;;;;;;5046744;28;10321;-78
2023/05/15 08:44:02;;;;;;;;;42.50;36.75;;;;;;;;5047480;28;10358;-81
2023/05/15 08:46:29;;;;;;;;;37.75;33.00;;;;;;;;5047135;28;10372;-80
2023/05/15 08:48:59;;;;;;;;;31.25;29.00;;;;;;;;5047686;28;10235;-81
2023/05/15 08:51:26;;;;;;;;;49.25;37.50;;;;;;;;5046986;28;10107;-81
2023/05/15 08:53:53;;;;;;;;;46.50;37.25;;;;;;;;5048394;28;10519;-81
2023/05/15 08:56:21;;;;;;;;;41.25;36.75;;;;;;;;5047749;28;10192;-80
2023/05/15 08:58:48;;;;;;;;;40.50;36.50;;;;;;;;5049230;28;10256;-84
2023/05/15 09:01:16;;;;;;;;;40.00;35.00;;;;;;;;5046973;28;10476;-80
2023/05/15 09:03:43;;;;;;;;;48.50;40.00;;;;;;;;5047078;28;10642;-82
2023/05/15 09:06:13;;;;;;;;;39.50;35.00;;;;;;;;5038124;28;10640;-81
2023/05/15 09:08:41;;;;;;;;;48.25;38.25;;;;;;;;5038704;28;10463;-81
2023/05/15 09:11:09;;;;;;;;;45.75;38.00;;;;;;;;5044517;28;10675;-78
2023/05/15 09:13:36;;;;;;;;;47.25;38.75;;;;;;;;5046814;28;10708;-79
2023/05/15 09:16:03;;;;;;;;;13.50;7.75;;;;;;;;5047038;28;10593;-81
2023/05/15 09:18:31;;;;;;;;;29.00;27.25;;;;;;;;5046734;28;11275;-78
2023/05/15 09:21:24;;;;;;;;;24.75;24.75;;;;;;;;5040981;28;10383;-77
2023/05/15 09:23:51;;;;;;;;;23.50;22.00;;;;;;;;5044913;28;9772;-77
2023/05/15 09:26:18;;;;;;;;;22.75;21.25;;;;;;;;5050181;28;9832;-80
2023/05/15 09:28:46;;;;;;;;;29.00;23.75;;;;;;;;5045113;28;9617;-78
2023/05/15 09:31:14;;;;;;;;;19.00;19.00;;;;;;;;5049259;28;9553;-74
2023/05/15 09:33:42;;;;;;;;;21.67;20.00;;;;;;;;5049944;28;9470;-76
2023/05/15 09:36:10;;;;;;;;;24.33;21.67;;;;;;;;5050331;28;9399;-75
2023/05/15 09:38:46;;;;;;;;;24.67;23.00;;;;;;;;5050221;28;9439;-76
2023/05/15 09:41:14;;;;;;;;;24.33;24.33;;;;;;;;5050127;28;9416;-79
2023/05/15 09:43:41;;;;;;;;;20.00;20.00;;;;;;;;5038744;28;9320;-80
2023/05/15 09:46:11;;;;;;;;;22.33;22.33;;;;;;;;5050392;28;9931;-78
2023/05/15 09:48:39;;;;;;;;;24.67;24.67;;;;;;;;5050138;28;10007;-78
2023/05/15 09:51:07;;;;;;;;;20.00;18.67;;;;;;;;5048960;28;10046;-78
2023/05/15 09:53:37;;;;;;;;;22.67;20.00;;;;;;;;5049856;28;9087;-78
2023/05/15 09:56:06;;;;;;;;;21.00;20.33;;;;;;;;5049827;28;9112;-77
2023/05/15 09:58:35;;;;;;;;;16.25;14.50;;;;;;;;5050074;28;8926;-79
2023/05/15 10:01:02;;;;;;;;;22.50;19.50;;;;;;;;5048568;28;8788;-79
2023/05/15 10:03:30;;;;;;;;;15.50;15.50;;;;;;;;5049521;28;9420;-78
2023/05/15 10:06:00;;;;;;;;;21.50;21.50;;;;;;;;5041373;28;8865;-77
2023/05/15 10:08:28;;;;;;;;;21.25;20.50;;;;;;;;5049358;28;8854;-79
2023/05/15 10:10:57;;;;;;;;;26.00;23.00;;;;;;;;5049483;28;9764;-79
2023/05/15 10:13:26;;;;;;;;;19.25;19.00;;;;;;;;5049794;28;8864;-78
2023/05/15 10:15:55;;;;;;;;;21.00;21.00;;;;;;;;5049745;28;8985;-79
2023/05/15 10:18:25;;;;;;;;;21.50;19.25;;;;;;;;5049240;28;8839;-78
2023/05/15 10:20:52;;;;;;;;;16.50;13.00;;;;;;;;5036106;28;8855;-78
2023/05/15 10:23:22;;;;;;;;;21.75;19.75;;;;;;;;5038294;28;8865;-79
2023/05/15 10:25:55;;;;;;;;;20.00;20.00;;;;;;;;5047638;28;8847;-83
2023/05/15 10:28:24;;;;;;;;;24.50;20.25;;;;;;;;5050169;28;8859;-81
2023/05/15 10:30:53;;;;;;;;;19.50;19.25;;;;;;;;5049313;28;9664;-84
2023/05/15 10:33:20;;;;;;;;;21.00;21.00;;;;;;;;5049764;28;8827;-79
2023/05/15 10:35:47;;;;;;;;;24.25;23.00;;;;;;;;5050708;28;8851;-88
2023/05/15 10:38:15;;;;;;;;;21.75;20.75;;;;;;;;5037640;28;8875;-86
2023/05/15 10:40:43;;;;;;;;;27.75;25.75;;;;;;;;5051659;28;8843;-82
2023/05/15 10:43:11;;;;;;;;;23.50;22.50;;;;;;;;5052191;28;8875;-80
2023/05/15 10:45:40;;;;;;;;;26.75;23.50;;;;;;;;5051126;28;8843;-83
2023/05/15 10:48:11;;;;;;;;;30.00;26.75;;;;;;;;5049975;28;8858;-80
2023/05/15 10:50:38;;;;;;;;;15.00;15.00;;;;;;;;5043161;28;8839;-81
2023/05/15 10:53:06;;;;;;;;;22.75;21.00;;;;;;;;5049374;28;8885;-80
2023/05/15 10:55:33;;;;;;;;;21.00;21.00;;;;;;;;5042485;28;8857;-79
2023/05/15 10:58:00;;;;;;;;;24.50;18.75;;;;;;;;5045683;28;8895;-80
2023/05/15 11:00:30;;;;;;;;;22.50;21.50;;;;;;;;5038214;28;8775;-80
2023/05/15 11:02:59;;;;;;;;;21.50;21.50;;;;;;;;5048615;28;8851;-80
2023/05/15 11:05:29;;;;;;;;;27.25;24.25;;;;;;;;5043616;28;8935;-81
2023/05/15 11:08:26;;;;;;;;;28.25;25.75;;;;;;;;5047273;28;8859;-82
2023/05/15 11:10:53;;;;;;;;;21.00;19.25;;;;;;;;5044793;28;8932;-77
2023/05/15 11:13:21;;;;;;;;;21.25;21.25;;;;;;;;5048311;28;8855;-82
2023/05/15 11:15:48;;;;;;;;;21.25;20.25;;;;;;;;5048322;28;8907;-80
2023/05/15 11:18:17;;;;;;;;;23.25;22.50;;;;;;;;5048805;28;8973;-82
2023/05/15 11:21:05;;;;;;;;;28.25;26.25;;;;;;;;5048526;28;8936;-81
2023/05/15 11:23:39;;;;;;;;;21.00;21.00;;;;;;;;5041978;28;9626;-82
2023/05/15 11:26:06;;;;;;;;;22.00;19.75;;;;;;;;5044264;28;8886;-80
2023/05/15 11:28:43;;;;;;;;;25.00;25.00;;;;;;;;5048542;28;8835;-81
2023/05/15 11:31:10;;;;;;;;;29.50;24.00;;;;;;;;5041161;28;8804;-81
2023/05/15 11:33:40;;;;;;;;;23.75;23.75;;;;;;;;5048795;28;8859;-82
2023/05/15 11:36:07;;;;;;;;;26.00;26.00;;;;;;;;5045054;28;8947;-85
2023/05/15 11:38:39;;;;;;;;;27.75;25.75;;;;;;;;5045046;28;8881;-83
2023/05/15 11:41:20;;;;;;;;;22.50;21.50;;;;;;;;5048575;28;8863;-85
2023/05/15 11:43:48;;;;;;;;;26.00;23.50;;;;;;;;5047787;28;9748;-83
2023/05/15 11:46:15;;;;;;;;;26.75;26.75;;;;;;;;5048128;28;8847;-83
2023/05/15 11:48:47;;;;;;;;;27.25;27.25;;;;;;;;5047842;28;8867;-84
2023/05/15 11:51:19;;;;;;;;;25.75;25.25;;;;;;;;5048056;28;8955;-88
2023/05/15 11:53:46;;;;;;;;;25.25;24.75;;;;;;;;5048579;28;8883;-85
2023/05/15 11:56:18;;;;;;;;;28.75;28.75;;;;;;;;5047702;28;8845;-84
2023/05/15 11:58:47;;;;;;;;;30.00;28.00;;;;;;;;5048763;28;8864;-83
2023/05/15 12:01:15;;;;;;;;;32.50;28.00;;;;;;;;5047772;28;8896;-83
2023/05/15 12:03:43;;;;;;;;;30.75;26.50;;;;;;;;5048519;28;8839;-84
2023/05/15 12:06:11;;;;;;;;;28.25;27.75;;;;;;;;5044440;28;8893;-87
2023/05/15 12:08:40;;;;;;;;;25.50;23.75;;;;;;;;5040352;28;8843;-90
2023/05/15 12:11:08;;;;;;;;;30.50;26.00;;;;;;;;5051500;28;8863;-90
2023/05/15 12:13:36;;;;;;;;;27.75;27.50;;;;;;;;5053995;28;8873;-86
2023/05/15 12:16:04;;;;;;;;;27.75;26.50;;;;;;;;5048281;28;8840;-82
2023/05/15 12:18:31;;;;;;;;;27.50;27.50;;;;;;;;5047615;28;9005;-83
2023/05/15 12:21:00;;;;;;;;;30.00;23.75;;;;;;;;5044382;28;8989;-89
2023/05/15 12:23:29;;;;;;;;;32.00;26.50;;;;;;;;5046750;28;8877;-91
2023/05/15 12:26:01;;;;;;;;;31.50;26.50;;;;;;;;5053598;28;8851;-95
2023/05/15 12:28:29;;;;;;;;;30.25;28.25;;;;;;;;5054844;28;8855;-90
2023/05/15 12:30:57;;;;;;;;;31.00;26.50;;;;;;;;5051933;28;8800;-89
2023/05/15 12:33:24;;;;;;;;;21.75;20.25;;;;;;;;5050736;28;9618;-88
2023/05/15 12:35:55;;;;;;;;;32.00;31.25;;;;;;;;5040842;28;8871;-90
2023/05/15 12:38:27;;;;;;;;;26.75;26.75;;;;;;;;5038070;28;8865;-89
2023/05/15 12:40:55;;;;;;;;;23.75;23.75;;;;;;;;5037141;28;8858;-83
2023/05/15 12:43:25;;;;;;;;;17.50;14.25;;;;;;;;5048106;28;8839;-81
2023/05/15 12:45:55;;;;;;;;;19.25;18.50;;;;;;;;5047760;28;8898;-82
2023/05/15 12:48:23;;;;;;;;;25.25;23.50;;;;;;;;5047469;28;8881;-83
2023/05/15 12:50:50;;;;;;;;;18.75;17.25;;;;;;;;5046168;28;8916;-86
2023/05/15 12:53:18;;;;;;;;;14.75;14.50;;;;;;;;5047684;28;8952;-83
2023/05/15 12:55:47;;;;;;;;;23.00;21.00;;;;;;;;5048347;28;8863;-81
2023/05/15 12:58:17;;;;;;;;;23.00;23.00;;;;;;;;5050955;28;8909;-88
2023/05/15 13:00:46;;;;;;;;;28.25;23.50;;;;;;;;5051717;28;8759;-81
2023/05/15 13:03:14;;;;;;;;;21.25;20.25;;;;;;;;5051174;28;9657;-79
2023/05/15 13:05:43;;;;;;;;;19.75;19.25;;;;;;;;5052054;28;8873;-83
2023/05/15 13:08:16;;;;;;;;;19.75;19.50;;;;;;;;5052321;28;8863;-81
2023/05/15 13:10:43;;;;;;;;;15.50;15.25;;;;;;;;5052748;28;8867;-86
2023/05/15 13:13:12;;;;;;;;;17.00;15.50;;;;;;;;5052020;28;9626;-78
2023/05/15 13:15:40;;;;;;;;;15.00;13.00;;;;;;;;5046219;28;8857;-76
2023/05/15 13:18:09;;;;;;;;;14.25;14.25;;;;;;;;5051262;28;8969;-75
2023/05/15 13:20:38;;;;;;;;;16.75;15.00;;;;;;;;5050716;28;8994;-77
2023/05/15 13:23:06;;;;;;;;;17.25;16.25;;;;;;;;5051720;28;9660;-77
2023/05/15 13:25:34;;;;;;;;;10.00;10.00;;;;;;;;5050464;28;8877;-78
2023/05/15 13:28:05;;;;;;;;;10.75;8.75;;;;;;;;5051321;28;8898;-80
2023/05/15 13:30:35;;;;;;;;;10.00;10.00;;;;;;;;5049973;28;8804;-79
2023/05/15 13:33:02;;;;;;;;;9.50;9.25;;;;;;;;5051190;28;8871;-80
2023/05/15 13:35:29;;;;;;;;;13.00;13.00;;;;;;;;5050361;28;8946;-79
2023/05/15 13:37:57;;;;;;;;;12.25;12.25;;;;;;;;5050872;28;8854;-79
2023/05/15 13:40:24;;;;;;;;;13.25;13.25;;;;;;;;5048996;28;8873;-79
2023/05/15 13:42:51;;;;;;;;;16.50;16.50;;;;;;;;5050966;28;8990;-81
2023/05/15 13:45:19;;;;;;;;;15.75;14.25;;;;;;;;5050844;28;8855;-85
2023/05/15 13:47:47;;;;;;;;;12.75;11.00;;;;;;;;5050950;28;8982;-78
2023/05/15 13:50:15;;;;;;;;;17.25;14.50;;;;;;;;5049588;28;8858;-82
2023/05/15 13:52:44;;;;;;;;;14.75;14.25;;;;;;;;5050467;28;8993;-80
2023/05/15 13:55:12;;;;;;;;;16.50;16.50;;;;;;;;5049940;28;8874;-77
2023/05/15 13:57:40;;;;;;;;;14.25;13.25;;;;;;;;5049532;28;8896;-78
2023/05/15 14:00:11;;;;;;;;;11.50;11.00;;;;;;;;5049220;28;8870;-82
2023/05/15 14:02:39;;;;;;;;;13.75;13.50;;;;;;;;5048502;28;8831;-79
2023/05/15 14:05:08;;;;;;;;;14.25;14.00;;;;;;;;5041750;28;8835;-82
2023/05/15 14:07:36;;;;;;;;;18.25;17.25;;;;;;;;5050814;28;8916;-86
2023/05/15 14:10:03;;;;;;;;;12.00;12.00;;;;;;;;5051063;28;8871;-77
2023/05/15 14:12:31;;;;;;;;;10.75;10.50;;;;;;;;5051061;28;8900;-84
2023/05/15 14:14:58;;;;;;;;;14.50;13.00;;;;;;;;5052371;28;8847;-87
2023/05/15 14:17:26;;;;;;;;;16.00;11.25;;;;;;;;5042434;28;8897;-81
2023/05/15 14:19:53;;;;;;;;;14.00;11.00;;;;;;;;5042512;28;9003;-80
2023/05/15 14:22:23;;;;;;;;;8.25;8.25;;;;;;;;5046624;28;8977;-81
2023/05/15 14:24:51;;;;;;;;;8.50;8.50;;;;;;;;5047716;28;8863;-82
2023/05/15 14:27:18;;;;;;;;;9.25;6.25;;;;;;;;5048735;28;8859;-82
2023/05/15 14:29:46;;;;;;;;;8.25;8.25;;;;;;;;5049919;28;8879;-81